WMKN/TGG METAR and TAF weather

Enter ICAO airport designator
Station Type Date Time Source
WMKN METAR 2018/12/10 02:00 UTC NOAA

WMKN 100200Z 23005KT 180V260 9999 -RA FEW008 SCT020 BKN150 26/25 Q1011


Station Type Date Time Source
WMKN Decoded METAR 2018/12/10 02:00 UTC NOAA

Station name not available
Dec 09, 2018 - 09:00 PM EST / 2018.12.10 0200 UTC
Wind: from the SW (230 degrees) at 6 MPH (5 KT) (direction variable):0
Visibility: greater than 7 mile(s):0
Sky conditions: mostly cloudy
Weather: light rain
Temperature: 78 F (26 C)
Dew Point: 77 F (25 C)
Relative Humidity: 94%
Pressure (altimeter): 29.85 in. Hg (1011 hPa)
ob: WMKN 100200Z 23005KT 180V260 9999 -RA FEW008 SCT020 BKN150 26/25 Q1011
cycle: 2

Station Type Date Time Source
WMKN TAF 2018/12/09 18:00 UTC NOAA

TAF WMKN 091700Z 0918/1018 VRB03KT 9999 FEW017CB SCT022 BKN150
TEMPO 0918/0922 7000 -RA FEW010 FEW016CB SCT018


Example: see airport list